sensor_id;sensor_type;location;lat;lon;timestamp;pressure;altitude;pressure_sealevel;temperature;humidity
7906;BME280;13291;40.472;-3.878;2023-04-25T00:02:10;53066.00;;;-139.96;43.05
7906;BME280;13291;40.472;-3.878;2023-04-25T00:04:39;53030.00;;;-139.96;42.68
7906;BME280;13291;40.472;-3.878;2023-04-25T00:07:06;53076.00;;;-139.96;43.08
7906;BME280;13291;40.472;-3.878;2023-04-25T00:09:33;53090.00;;;-139.96;43.08
7906;BME280;13291;40.472;-3.878;2023-04-25T00:12:00;53042.00;;;-139.96;42.98
7906;BME280;13291;40.472;-3.878;2023-04-25T00:14:27;53050.00;;;-139.96;42.83
7906;BME280;13291;40.472;-3.878;2023-04-25T00:16:54;53058.00;;;-139.96;43.06
7906;BME280;13291;40.472;-3.878;2023-04-25T00:19:21;53066.00;;;-139.96;43.04
7906;BME280;13291;40.472;-3.878;2023-04-25T00:21:49;53058.00;;;-139.96;42.98
7906;BME280;13291;40.472;-3.878;2023-04-25T00:24:16;53060.00;;;-139.96;43.02
7906;BME280;13291;40.472;-3.878;2023-04-25T00:26:43;53044.00;;;-139.96;42.75
7906;BME280;13291;40.472;-3.878;2023-04-25T00:29:10;53084.00;;;-139.96;42.65
7906;BME280;13291;40.472;-3.878;2023-04-25T00:31:37;53062.00;;;-139.96;42.67
7906;BME280;13291;40.472;-3.878;2023-04-25T00:34:06;53066.00;;;-139.96;42.55
7906;BME280;13291;40.472;-3.878;2023-04-25T00:36:33;53068.00;;;-139.96;42.62
7906;BME280;13291;40.472;-3.878;2023-04-25T00:39:02;53050.00;;;-139.96;42.69
7906;BME280;13291;40.472;-3.878;2023-04-25T00:41:30;53058.00;;;-139.96;42.98
7906;BME280;13291;40.472;-3.878;2023-04-25T00:43:57;53060.00;;;-139.96;43.03
7906;BME280;13291;40.472;-3.878;2023-04-25T00:46:25;53072.00;;;-139.96;42.89
7906;BME280;13291;40.472;-3.878;2023-04-25T00:48:52;53078.00;;;-139.96;42.74
7906;BME280;13291;40.472;-3.878;2023-04-25T00:51:20;53058.00;;;-139.96;42.59
7906;BME280;13291;40.472;-3.878;2023-04-25T00:53:48;53056.00;;;-139.96;42.23
7906;BME280;13291;40.472;-3.878;2023-04-25T00:56:17;53086.00;;;-139.96;42.60
7906;BME280;13291;40.472;-3.878;2023-04-25T00:58:44;53058.00;;;-139.96;42.23
7906;BME280;13291;40.472;-3.878;2023-04-25T01:01:12;53066.00;;;-139.96;42.52
7906;BME280;13291;40.472;-3.878;2023-04-25T01:03:39;53070.00;;;-139.96;42.41
7906;BME280;13291;40.472;-3.878;2023-04-25T01:06:08;53032.00;;;-139.96;42.75
7906;BME280;13291;40.472;-3.878;2023-04-25T01:08:36;53046.00;;;-139.96;42.26
7906;BME280;13291;40.472;-3.878;2023-04-25T01:11:03;53070.00;;;-139.96;42.55
7906;BME280;13291;40.472;-3.878;2023-04-25T01:13:32;53026.00;;;-139.96;42.15
7906;BME280;13291;40.472;-3.878;2023-04-25T01:16:00;53056.00;;;-139.96;42.27
7906;BME280;13291;40.472;-3.878;2023-04-25T01:18:27;53060.00;;;-139.96;42.31
7906;BME280;13291;40.472;-3.878;2023-04-25T01:20:54;53054.00;;;-139.96;42.26
7906;BME280;13291;40.472;-3.878;2023-04-25T01:23:23;53058.00;;;-139.96;41.88
7906;BME280;13291;40.472;-3.878;2023-04-25T01:25:50;53066.00;;;-139.96;42.14
7906;BME280;13291;40.472;-3.878;2023-04-25T01:28:17;53086.00;;;-139.96;42.07
7906;BME280;13291;40.472;-3.878;2023-04-25T01:30:45;53066.00;;;-139.96;42.18
7906;BME280;13291;40.472;-3.878;2023-04-25T01:33:13;53060.00;;;-139.96;41.94
7906;BME280;13291;40.472;-3.878;2023-04-25T01:35:40;53050.00;;;-139.96;41.79
7906;BME280;13291;40.472;-3.878;2023-04-25T01:38:07;53072.00;;;-139.96;41.86
7906;BME280;13291;40.472;-3.878;2023-04-25T01:40:37;53070.00;;;-139.96;42.07
7906;BME280;13291;40.472;-3.878;2023-04-25T01:43:05;53048.00;;;-139.96;41.78
7906;BME280;13291;40.472;-3.878;2023-04-25T01:45:33;53058.00;;;-139.96;41.93
7906;BME280;13291;40.472;-3.878;2023-04-25T01:48:02;53070.00;;;-139.96;41.93
7906;BME280;13291;40.472;-3.878;2023-04-25T01:50:29;53050.00;;;-139.96;42.29
7906;BME280;13291;40.472;-3.878;2023-04-25T01:52:56;53092.00;;;-139.96;42.58
7906;BME280;13291;40.472;-3.878;2023-04-25T01:55:23;53028.00;;;-139.96;42.55
7906;BME280;13291;40.472;-3.878;2023-04-25T01:57:51;53060.00;;;-139.96;42.81
7906;BME280;13291;40.472;-3.878;2023-04-25T02:00:18;53076.00;;;-139.96;42.53
7906;BME280;13291;40.472;-3.878;2023-04-25T02:02:46;53026.00;;;-139.96;42.74
7906;BME280;13291;40.472;-3.878;2023-04-25T02:05:13;53080.00;;;-139.96;43.07
7906;BME280;13291;40.472;-3.878;2023-04-25T02:07:40;53066.00;;;-139.96;42.82
7906;BME280;13291;40.472;-3.878;2023-04-25T02:10:08;53060.00;;;-139.96;42.94
7906;BME280;13291;40.472;-3.878;2023-04-25T02:12:35;53074.00;;;-139.96;42.96
7906;BME280;13291;40.472;-3.878;2023-04-25T02:15:05;53094.00;;;-139.96;43.37
7906;BME280;13291;40.472;-3.878;2023-04-25T02:17:32;53050.00;;;-139.96;43.36
7906;BME280;13291;40.472;-3.878;2023-04-25T02:19:59;53060.00;;;-139.96;43.36
7906;BME280;13291;40.472;-3.878;2023-04-25T02:22:26;53050.00;;;-139.96;43.15
7906;BME280;13291;40.472;-3.878;2023-04-25T02:24:55;53080.00;;;-139.96;43.19
7906;BME280;13291;40.472;-3.878;2023-04-25T02:27:22;53046.00;;;-139.96;43.48
7906;BME280;13291;40.472;-3.878;2023-04-25T02:29:49;53036.00;;;-139.96;43.47
7906;BME280;13291;40.472;-3.878;2023-04-25T02:32:17;53054.00;;;-139.96;43.36
7906;BME280;13291;40.472;-3.878;2023-04-25T02:34:44;53048.00;;;-139.96;43.55
7906;BME280;13291;40.472;-3.878;2023-04-25T02:37:12;53078.00;;;-139.96;43.34
7906;BME280;13291;40.472;-3.878;2023-04-25T02:39:39;53066.00;;;-139.96;43.73
7906;BME280;13291;40.472;-3.878;2023-04-25T02:42:05;53094.00;;;-139.96;43.90
7906;BME280;13291;40.472;-3.878;2023-04-25T02:44:32;53086.00;;;-139.96;43.66
7906;BME280;13291;40.472;-3.878;2023-04-25T02:46:59;53082.00;;;-139.96;43.94
7906;BME280;13291;40.472;-3.878;2023-04-25T02:49:28;53036.00;;;-139.96;43.67
7906;BME280;13291;40.472;-3.878;2023-04-25T02:51:54;53096.00;;;-139.96;43.79
7906;BME280;13291;40.472;-3.878;2023-04-25T02:54:21;53082.00;;;-139.96;43.80
7906;BME280;13291;40.472;-3.878;2023-04-25T02:56:48;53082.00;;;-139.96;43.71
7906;BME280;13291;40.472;-3.878;2023-04-25T02:59:15;53048.00;;;-139.96;43.74
7906;BME280;13291;40.472;-3.878;2023-04-25T03:01:42;53060.00;;;-139.96;43.86
7906;BME280;13291;40.472;-3.878;2023-04-25T03:04:09;53052.00;;;-139.96;43.93
7906;BME280;13291;40.472;-3.878;2023-04-25T03:06:37;53088.00;;;-139.96;43.64
7906;BME280;13291;40.472;-3.878;2023-04-25T03:09:04;53102.00;;;-139.96;43.83
7906;BME280;13291;40.472;-3.878;2023-04-25T03:11:31;53040.00;;;-139.96;44.26
7906;BME280;13291;40.472;-3.878;2023-04-25T03:13:57;53112.00;;;-139.96;44.19
7906;BME280;13291;40.472;-3.878;2023-04-25T03:16:24;53094.00;;;-139.96;44.29
7906;BME280;13291;40.472;-3.878;2023-04-25T03:18:51;53052.00;;;-139.96;44.09
7906;BME280;13291;40.472;-3.878;2023-04-25T03:21:18;53090.00;;;-139.96;43.93
7906;BME280;13291;40.472;-3.878;2023-04-25T03:23:46;53092.00;;;-139.96;44.10
7906;BME280;13291;40.472;-3.878;2023-04-25T03:26:13;53114.00;;;-139.96;44.29
7906;BME280;13291;40.472;-3.878;2023-04-25T03:28:41;53122.00;;;-139.96;44.35
7906;BME280;13291;40.472;-3.878;2023-04-25T03:31:08;53086.00;;;-139.96;44.67
7906;BME280;13291;40.472;-3.878;2023-04-25T03:33:35;53114.00;;;-139.96;45.07
7906;BME280;13291;40.472;-3.878;2023-04-25T03:36:02;53096.00;;;-139.96;45.00
7906;BME280;13291;40.472;-3.878;2023-04-25T03:38:29;53080.00;;;-139.96;45.17
7906;BME280;13291;40.472;-3.878;2023-04-25T03:40:58;53082.00;;;-139.96;45.49
7906;BME280;13291;40.472;-3.878;2023-04-25T03:43:24;53086.00;;;-139.96;44.97
7906;BME280;13291;40.472;-3.878;2023-04-25T03:45:51;53106.00;;;-139.96;45.16
7906;BME280;13291;40.472;-3.878;2023-04-25T03:48:18;53086.00;;;-139.96;45.01
7906;BME280;13291;40.472;-3.878;2023-04-25T03:50:46;53094.00;;;-139.96;45.26
7906;BME280;13291;40.472;-3.878;2023-04-25T03:53:13;53124.00;;;-139.96;44.84
7906;BME280;13291;40.472;-3.878;2023-04-25T03:55:40;53070.00;;;-139.96;44.86
7906;BME280;13291;40.472;-3.878;2023-04-25T03:58:08;53084.00;;;-139.96;45.36
7906;BME280;13291;40.472;-3.878;2023-04-25T04:00:36;53078.00;;;-139.96;45.88
7906;BME280;13291;40.472;-3.878;2023-04-25T04:03:03;53098.00;;;-139.96;45.36
7906;BME280;13291;40.472;-3.878;2023-04-25T04:05:30;53072.00;;;-139.96;45.75
7906;BME280;13291;40.472;-3.878;2023-04-25T04:07:58;53064.00;;;-139.96;45.09
7906;BME280;13291;40.472;-3.878;2023-04-25T04:10:24;53106.00;;;-139.96;45.60
7906;BME280;13291;40.472;-3.878;2023-04-25T04:12:52;53080.00;;;-139.96;45.17
7906;BME280;13291;40.472;-3.878;2023-04-25T04:15:20;53122.00;;;-139.96;45.19
7906;BME280;13291;40.472;-3.878;2023-04-25T04:17:48;53112.00;;;-139.96;45.14
7906;BME280;13291;40.472;-3.878;2023-04-25T04:20:15;53086.00;;;-139.96;45.47
7906;BME280;13291;40.472;-3.878;2023-04-25T04:22:42;53090.00;;;-139.96;45.45
7906;BME280;13291;40.472;-3.878;2023-04-25T04:25:09;53112.00;;;-139.96;45.67
7906;BME280;13291;40.472;-3.878;2023-04-25T04:27:37;53102.00;;;-139.96;45.56
7906;BME280;13291;40.472;-3.878;2023-04-25T04:30:05;53106.00;;;-139.96;45.70
7906;BME280;13291;40.472;-3.878;2023-04-25T04:32:34;53080.00;;;-139.96;45.94
7906;BME280;13291;40.472;-3.878;2023-04-25T04:35:03;53114.00;;;-139.96;46.49
7906;BME280;13291;40.472;-3.878;2023-04-25T04:37:32;53112.00;;;-139.96;45.97
7906;BME280;13291;40.472;-3.878;2023-04-25T04:39:59;53098.00;;;-139.96;46.47
7906;BME280;13291;40.472;-3.878;2023-04-25T04:42:30;53076.00;;;-139.96;46.14
7906;BME280;13291;40.472;-3.878;2023-04-25T04:44:57;53102.00;;;-139.96;46.19
7906;BME280;13291;40.472;-3.878;2023-04-25T04:47:24;53122.00;;;-139.96;46.12
7906;BME280;13291;40.472;-3.878;2023-04-25T04:49:52;53064.00;;;-139.96;46.27
7906;BME280;13291;40.472;-3.878;2023-04-25T04:52:19;53124.00;;;-139.96;46.26
7906;BME280;13291;40.472;-3.878;2023-04-25T04:54:46;53112.00;;;-139.96;46.35
7906;BME280;13291;40.472;-3.878;2023-04-25T04:57:13;53122.00;;;-139.96;46.77
7906;BME280;13291;40.472;-3.878;2023-04-25T04:59:39;53110.00;;;-139.96;46.96
7906;BME280;13291;40.472;-3.878;2023-04-25T05:02:06;53110.00;;;-139.96;46.99
7906;BME280;13291;40.472;-3.878;2023-04-25T05:04:33;53132.00;;;-139.96;46.88
7906;BME280;13291;40.472;-3.878;2023-04-25T05:07:01;53086.00;;;-139.96;46.86
7906;BME280;13291;40.472;-3.878;2023-04-25T05:09:28;53106.00;;;-139.96;46.87
7906;BME280;13291;40.472;-3.878;2023-04-25T05:11:55;53086.00;;;-139.96;46.90
7906;BME280;13291;40.472;-3.878;2023-04-25T05:14:22;53126.00;;;-139.96;47.21
7906;BME280;13291;40.472;-3.878;2023-04-25T05:16:49;53098.00;;;-139.96;47.37
7906;BME280;13291;40.472;-3.878;2023-04-25T05:19:16;53102.00;;;-139.96;47.21
7906;BME280;13291;40.472;-3.878;2023-04-25T05:21:43;53102.00;;;-139.96;47.27
7906;BME280;13291;40.472;-3.878;2023-04-25T05:24:11;53110.00;;;-139.96;47.12
7906;BME280;13291;40.472;-3.878;2023-04-25T05:26:38;53106.00;;;-139.96;47.24
7906;BME280;13291;40.472;-3.878;2023-04-25T05:29:05;53112.00;;;-139.96;47.29
7906;BME280;13291;40.472;-3.878;2023-04-25T05:31:32;53130.00;;;-139.96;47.57
7906;BME280;13291;40.472;-3.878;2023-04-25T05:33:59;53110.00;;;-139.96;47.79
7906;BME280;13291;40.472;-3.878;2023-04-25T05:36:25;53092.00;;;-139.96;47.50
7906;BME280;13291;40.472;-3.878;2023-04-25T05:38:52;53138.00;;;-139.96;48.06
7906;BME280;13291;40.472;-3.878;2023-04-25T05:41:20;53134.00;;;-139.96;48.11
7906;BME280;13291;40.472;-3.878;2023-04-25T05:43:47;53138.00;;;-139.96;48.04
7906;BME280;13291;40.472;-3.878;2023-04-25T05:46:15;53106.00;;;-139.96;48.41
7906;BME280;13291;40.472;-3.878;2023-04-25T05:48:42;53098.00;;;-139.96;48.20
7906;BME280;13291;40.472;-3.878;2023-04-25T05:51:09;53154.00;;;-139.96;48.53
7906;BME280;13291;40.472;-3.878;2023-04-25T05:53:36;53108.00;;;-139.96;48.41
7906;BME280;13291;40.472;-3.878;2023-04-25T05:56:03;53132.00;;;-139.96;48.48
7906;BME280;13291;40.472;-3.878;2023-04-25T05:58:32;53144.00;;;-139.96;48.58
7906;BME280;13291;40.472;-3.878;2023-04-25T06:00:58;53142.00;;;-139.96;48.48
7906;BME280;13291;40.472;-3.878;2023-04-25T06:03:26;53126.00;;;-139.96;48.68
7906;BME280;13291;40.472;-3.878;2023-04-25T06:05:52;53106.00;;;-139.96;48.43
7906;BME280;13291;40.472;-3.878;2023-04-25T06:08:19;53114.00;;;-139.96;48.74
7906;BME280;13291;40.472;-3.878;2023-04-25T06:10:46;53116.00;;;-139.96;49.08
7906;BME280;13291;40.472;-3.878;2023-04-25T06:13:13;53106.00;;;-139.96;48.51
7906;BME280;13291;40.472;-3.878;2023-04-25T06:15:42;53116.00;;;-139.96;48.19
7906;BME280;13291;40.472;-3.878;2023-04-25T06:18:08;53142.00;;;-139.96;49.19
7906;BME280;13291;40.472;-3.878;2023-04-25T06:20:35;53158.03;;;-139.96;49.36
7906;BME280;13291;40.472;-3.878;2023-04-25T06:23:02;53114.00;;;-139.96;49.67
7906;BME280;13291;40.472;-3.878;2023-04-25T06:25:30;53114.00;;;-139.96;49.72
7906;BME280;13291;40.472;-3.878;2023-04-25T06:27:57;53106.00;;;-139.96;49.54
7906;BME280;13291;40.472;-3.878;2023-04-25T06:30:24;53146.00;;;-139.96;49.82
7906;BME280;13291;40.472;-3.878;2023-04-25T06:32:52;53134.00;;;-139.96;49.30
7906;BME280;13291;40.472;-3.878;2023-04-25T06:35:20;53116.00;;;-139.96;49.36
7906;BME280;13291;40.472;-3.878;2023-04-25T06:37:47;53116.00;;;-139.96;48.98
7906;BME280;13291;40.472;-3.878;2023-04-25T06:40:14;53088.00;;;-139.96;49.05
7906;BME280;13291;40.472;-3.878;2023-04-25T06:42:42;53134.00;;;-139.96;48.34
7906;BME280;13291;40.472;-3.878;2023-04-25T06:45:10;53110.00;;;-139.96;47.94
7906;BME280;13291;40.472;-3.878;2023-04-25T06:47:37;53126.00;;;-139.96;47.70
7906;BME280;13291;40.472;-3.878;2023-04-25T06:50:06;53110.00;;;-139.96;47.82
7906;BME280;13291;40.472;-3.878;2023-04-25T06:52:34;53098.00;;;-139.96;47.17
7906;BME280;13291;40.472;-3.878;2023-04-25T06:55:00;53130.00;;;-139.96;46.96
7906;BME280;13291;40.472;-3.878;2023-04-25T06:57:28;53086.00;;;-139.96;47.51
7906;BME280;13291;40.472;-3.878;2023-04-25T06:59:54;53130.00;;;-139.96;47.18
7906;BME280;13291;40.472;-3.878;2023-04-25T07:02:21;53110.00;;;-139.96;45.40
7906;BME280;13291;40.472;-3.878;2023-04-25T07:04:48;53126.00;;;-139.96;46.38
7906;BME280;13291;40.472;-3.878;2023-04-25T07:07:16;53090.00;;;-139.96;46.69
7906;BME280;13291;40.472;-3.878;2023-04-25T07:09:43;53140.00;;;-139.96;45.90
7906;BME280;13291;40.472;-3.878;2023-04-25T07:12:10;53128.00;;;-139.96;45.88
7906;BME280;13291;40.472;-3.878;2023-04-25T07:14:37;53134.00;;;-139.96;45.56
7906;BME280;13291;40.472;-3.878;2023-04-25T07:17:04;53094.00;;;-139.96;45.78
7906;BME280;13291;40.472;-3.878;2023-04-25T07:19:32;53096.00;;;-139.96;46.03
7906;BME280;13291;40.472;-3.878;2023-04-25T07:21:59;53108.00;;;-139.96;46.80
7906;BME280;13291;40.472;-3.878;2023-04-25T07:24:27;53106.00;;;-139.96;46.00
7906;BME280;13291;40.472;-3.878;2023-04-25T07:26:54;53136.00;;;-139.96;45.95
7906;BME280;13291;40.472;-3.878;2023-04-25T07:29:20;53104.00;;;-139.96;45.68
7906;BME280;13291;40.472;-3.878;2023-04-25T07:31:47;53104.00;;;-139.96;45.59
7906;BME280;13291;40.472;-3.878;2023-04-25T07:34:14;53088.00;;;-139.96;45.95
7906;BME280;13291;40.472;-3.878;2023-04-25T07:36:41;53100.00;;;-139.96;45.86
7906;BME280;13291;40.472;-3.878;2023-04-25T07:39:08;53088.00;;;-139.96;45.94
7906;BME280;13291;40.472;-3.878;2023-04-25T07:41:36;53094.00;;;-139.96;45.54
7906;BME280;13291;40.472;-3.878;2023-04-25T07:44:03;53092.00;;;-139.96;45.79
7906;BME280;13291;40.472;-3.878;2023-04-25T07:46:30;53066.00;;;-139.96;45.57
7906;BME280;13291;40.472;-3.878;2023-04-25T07:48:57;53074.00;;;-139.96;44.95
7906;BME280;13291;40.472;-3.878;2023-04-25T07:51:25;53042.00;;;-139.96;44.53
7906;BME280;13291;40.472;-3.878;2023-04-25T07:53:51;53058.00;;;-139.96;44.29
7906;BME280;13291;40.472;-3.878;2023-04-25T07:56:18;53056.00;;;-139.96;43.58
7906;BME280;13291;40.472;-3.878;2023-04-25T07:58:46;53080.00;;;-139.96;43.95
7906;BME280;13291;40.472;-3.878;2023-04-25T08:01:13;53082.00;;;-139.96;44.37
7906;BME280;13291;40.472;-3.878;2023-04-25T08:03:40;53072.00;;;-139.96;43.45
7906;BME280;13291;40.472;-3.878;2023-04-25T08:06:07;53112.00;;;-139.96;43.46
7906;BME280;13291;40.472;-3.878;2023-04-25T08:08:34;53044.00;;;-139.96;43.24
7906;BME280;13291;40.472;-3.878;2023-04-25T08:11:01;53078.00;;;-139.96;43.19
7906;BME280;13291;40.472;-3.878;2023-04-25T08:13:28;53046.00;;;-139.96;43.47
7906;BME280;13291;40.472;-3.878;2023-04-25T08:15:56;53026.00;;;-139.96;43.33
7906;BME280;13291;40.472;-3.878;2023-04-25T08:18:23;53070.00;;;-139.96;43.13
7906;BME280;13291;40.472;-3.878;2023-04-25T08:20:50;53096.00;;;-139.96;42.81
7906;BME280;13291;40.472;-3.878;2023-04-25T08:23:17;53056.00;;;-139.96;43.19
7906;BME280;13291;40.472;-3.878;2023-04-25T08:25:43;53066.00;;;-139.96;43.42
7906;BME280;13291;40.472;-3.878;2023-04-25T08:28:10;53060.00;;;-139.96;43.39
7906;BME280;13291;40.472;-3.878;2023-04-25T08:30:37;53054.00;;;-139.96;43.23
7906;BME280;13291;40.472;-3.878;2023-04-25T08:33:06;53022.00;;;-139.96;43.36
7906;BME280;13291;40.472;-3.878;2023-04-25T08:35:33;53048.00;;;-139.96;43.03
7906;BME280;13291;40.472;-3.878;2023-04-25T08:38:00;53058.00;;;-139.96;43.05
7906;BME280;13291;40.472;-3.878;2023-04-25T08:40:28;53074.00;;;-139.96;42.90
7906;BME280;13291;40.472;-3.878;2023-04-25T08:42:57;53026.00;;;-139.96;41.83
7906;BME280;13291;40.472;-3.878;2023-04-25T08:45:25;53070.00;;;-139.96;42.02
7906;BME280;13291;40.472;-3.878;2023-04-25T08:47:54;53056.00;;;-139.96;41.94
7906;BME280;13291;40.472;-3.878;2023-04-25T08:50:24;53050.00;;;-139.96;42.08
7906;BME280;13291;40.472;-3.878;2023-04-25T08:52:53;53070.00;;;-139.96;41.36
7906;BME280;13291;40.472;-3.878;2023-04-25T08:55:21;53009.97;;;-139.96;41.31
7906;BME280;13291;40.472;-3.878;2023-04-25T08:57:49;53052.00;;;-139.96;41.52
7906;BME280;13291;40.472;-3.878;2023-04-25T09:00:18;53040.00;;;-139.96;42.05
7906;BME280;13291;40.472;-3.878;2023-04-25T09:02:46;53066.00;;;-139.96;41.58
7906;BME280;13291;40.472;-3.878;2023-04-25T09:05:14;53054.00;;;-139.96;41.98
7906;BME280;13291;40.472;-3.878;2023-04-25T09:07:42;53044.00;;;-139.96;41.98
7906;BME280;13291;40.472;-3.878;2023-04-25T09:10:09;53042.00;;;-139.96;41.62
7906;BME280;13291;40.472;-3.878;2023-04-25T09:12:36;53036.00;;;-139.96;41.69
7906;BME280;13291;40.472;-3.878;2023-04-25T09:15:07;53042.00;;;-139.96;42.43
7906;BME280;13291;40.472;-3.878;2023-04-25T09:17:34;53040.00;;;-139.96;42.75
7906;BME280;13291;40.472;-3.878;2023-04-25T09:20:07;53056.00;;;-139.96;41.91
7906;BME280;13291;40.472;-3.878;2023-04-25T09:22:35;53036.00;;;-139.96;41.69
7906;BME280;13291;40.472;-3.878;2023-04-25T09:25:08;53048.00;;;-139.96;41.90
7906;BME280;13291;40.472;-3.878;2023-04-25T09:27:36;53026.00;;;-139.96;42.06
7906;BME280;13291;40.472;-3.878;2023-04-25T09:30:03;53020.00;;;-139.96;40.98
7906;BME280;13291;40.472;-3.878;2023-04-25T09:32:30;53052.00;;;-139.96;40.82
7906;BME280;13291;40.472;-3.878;2023-04-25T09:34:57;53005.97;;;-139.96;40.98
7906;BME280;13291;40.472;-3.878;2023-04-25T09:37:25;53018.00;;;-139.96;39.89
7906;BME280;13291;40.472;-3.878;2023-04-25T09:39:54;53064.00;;;-139.96;41.02
7906;BME280;13291;40.472;-3.878;2023-04-25T09:42:23;53022.00;;;-139.96;40.28
7906;BME280;13291;40.472;-3.878;2023-04-25T09:44:52;53046.00;;;-139.96;40.14
7906;BME280;13291;40.472;-3.878;2023-04-25T09:47:20;53040.00;;;-139.96;40.39
7906;BME280;13291;40.472;-3.878;2023-04-25T09:49:49;53024.00;;;-139.96;39.67
7906;BME280;13291;40.472;-3.878;2023-04-25T09:52:17;53036.00;;;-139.96;39.97
7906;BME280;13291;40.472;-3.878;2023-04-25T09:54:45;53046.00;;;-139.96;39.81
7906;BME280;13291;40.472;-3.878;2023-04-25T09:57:14;53040.00;;;-139.96;39.77
7906;BME280;13291;40.472;-3.878;2023-04-25T09:59:45;53012.00;;;-139.96;39.08
7906;BME280;13291;40.472;-3.878;2023-04-25T10:02:13;53016.00;;;-139.96;39.61
7906;BME280;13291;40.472;-3.878;2023-04-25T10:04:40;53024.00;;;-139.96;38.60
7906;BME280;13291;40.472;-3.878;2023-04-25T10:07:08;53034.00;;;-139.96;38.69
7906;BME280;13291;40.472;-3.878;2023-04-25T10:09:37;53018.00;;;-139.96;38.05
7906;BME280;13291;40.472;-3.878;2023-04-25T10:12:06;53016.00;;;-139.96;38.72
7906;BME280;13291;40.472;-3.878;2023-04-25T10:14:34;53024.00;;;-139.96;38.00
7906;BME280;13291;40.472;-3.878;2023-04-25T10:17:05;53009.97;;;-139.96;37.63
7906;BME280;13291;40.472;-3.878;2023-04-25T10:19:34;53018.00;;;-139.96;38.05
7906;BME280;13291;40.472;-3.878;2023-04-25T10:22:06;52997.97;;;-139.96;37.98
7906;BME280;13291;40.472;-3.878;2023-04-25T10:24:34;52987.97;;;-139.96;37.89
7906;BME280;13291;40.472;-3.878;2023-04-25T10:27:02;53022.00;;;-139.96;38.38
7906;BME280;13291;40.472;-3.878;2023-04-25T10:29:29;53018.00;;;-139.96;36.97
7906;BME280;13291;40.472;-3.878;2023-04-25T10:31:56;52979.97;;;-139.96;37.47
7906;BME280;13291;40.472;-3.878;2023-04-25T10:34:37;53024.00;;;-139.96;37.95
7906;BME280;13291;40.472;-3.878;2023-04-25T10:37:05;52993.97;;;-139.96;36.98
7906;BME280;13291;40.472;-3.878;2023-04-25T10:39:34;53014.00;;;-139.96;37.02
7906;BME280;13291;40.472;-3.878;2023-04-25T10:42:02;52981.97;;;-139.96;37.56
7906;BME280;13291;40.472;-3.878;2023-04-25T10:44:30;53038.00;;;-139.96;37.40
7906;BME280;13291;40.472;-3.878;2023-04-25T10:46:58;53024.00;;;-139.96;38.11
7906;BME280;13291;40.472;-3.878;2023-04-25T10:49:32;53001.97;;;-139.96;37.89
7906;BME280;13291;40.472;-3.878;2023-04-25T10:52:18;53014.00;;;-139.96;36.55
7906;BME280;13291;40.472;-3.878;2023-04-25T10:54:52;52995.97;;;-139.96;36.15
7906;BME280;13291;40.472;-3.878;2023-04-25T10:57:36;53001.97;;;-139.96;36.34
7906;BME280;13291;40.472;-3.878;2023-04-25T11:00:09;52973.97;;;-139.96;34.99
7906;BME280;13291;40.472;-3.878;2023-04-25T11:02:40;52965.97;;;-139.96;34.83
7906;BME280;13291;40.472;-3.878;2023-04-25T11:05:09;52981.97;;;-139.96;35.12
7906;BME280;13291;40.472;-3.878;2023-04-25T11:07:47;52945.97;;;-139.96;35.11
7906;BME280;13291;40.472;-3.878;2023-04-25T11:10:16;52977.97;;;-139.96;36.27
7906;BME280;13291;40.472;-3.878;2023-04-25T11:12:42;52967.97;;;-139.96;33.81
7906;BME280;13291;40.472;-3.878;2023-04-25T11:15:09;52969.97;;;-139.96;34.28
7906;BME280;13291;40.472;-3.878;2023-04-25T11:17:36;52967.97;;;-139.96;33.63
7906;BME280;13291;40.472;-3.878;2023-04-25T11:20:06;52955.97;;;-139.96;33.25
7906;BME280;13291;40.472;-3.878;2023-04-25T11:22:38;52971.97;;;-139.96;33.24
7906;BME280;13291;40.472;-3.878;2023-04-25T11:25:08;52977.97;;;-139.96;33.54
7906;BME280;13291;40.472;-3.878;2023-04-25T11:27:38;52983.97;;;-139.96;33.93
7906;BME280;13291;40.472;-3.878;2023-04-25T11:30:13;52961.97;;;-139.96;32.75
7906;BME280;13291;40.472;-3.878;2023-04-25T11:32:41;52961.97;;;-139.96;31.76
7906;BME280;13291;40.472;-3.878;2023-04-25T11:35:08;52965.97;;;-139.96;31.85
7906;BME280;13291;40.472;-3.878;2023-04-25T11:37:35;52973.97;;;-139.96;31.55
7906;BME280;13291;40.472;-3.878;2023-04-25T11:40:05;52965.97;;;-139.96;31.52
7906;BME280;13291;40.472;-3.878;2023-04-25T11:42:34;52953.97;;;-139.96;31.69
7906;BME280;13291;40.472;-3.878;2023-04-25T11:45:01;52975.97;;;-139.96;32.01
7906;BME280;13291;40.472;-3.878;2023-04-25T11:47:30;52933.97;;;-139.96;31.04
7906;BME280;13291;40.472;-3.878;2023-04-25T11:49:58;52947.97;;;-139.96;31.28
7906;BME280;13291;40.472;-3.878;2023-04-25T11:52:35;52973.97;;;-139.96;30.55
7906;BME280;13291;40.472;-3.878;2023-04-25T11:55:06;52961.97;;;-139.96;30.42
7906;BME280;13291;40.472;-3.878;2023-04-25T11:57:33;52953.97;;;-139.96;30.76
7906;BME280;13291;40.472;-3.878;2023-04-25T12:00:08;52957.97;;;-139.96;30.92
7906;BME280;13291;40.472;-3.878;2023-04-25T12:02:36;52931.97;;;-139.96;29.50
7906;BME280;13291;40.472;-3.878;2023-04-25T12:05:06;52917.97;;;-139.96;29.23
7906;BME280;13291;40.472;-3.878;2023-04-25T12:07:33;52937.97;;;-139.96;29.06
7906;BME280;13291;40.472;-3.878;2023-04-25T12:10:06;52939.97;;;-139.96;28.62
7906;BME280;13291;40.472;-3.878;2023-04-25T12:12:34;52943.97;;;-139.96;28.26
7906;BME280;13291;40.472;-3.878;2023-04-25T12:15:11;52917.97;;;-139.96;28.43
7906;BME280;13291;40.472;-3.878;2023-04-25T12:17:41;52933.97;;;-139.96;28.19
7906;BME280;13291;40.472;-3.878;2023-04-25T12:20:09;52935.97;;;-139.96;28.82
7906;BME280;13291;40.472;-3.878;2023-04-25T12:22:37;52949.97;;;-139.96;29.57
7906;BME280;13291;40.472;-3.878;2023-04-25T12:25:06;52911.97;;;-139.96;29.10
7906;BME280;13291;40.472;-3.878;2023-04-25T12:27:33;52945.97;;;-139.96;27.56
7906;BME280;13291;40.472;-3.878;2023-04-25T12:30:01;52893.97;;;-139.96;27.42
7906;BME280;13291;40.472;-3.878;2023-04-25T12:32:29;52911.97;;;-139.96;27.86
7906;BME280;13291;40.472;-3.878;2023-04-25T12:34:56;52893.97;;;-139.96;28.13
7906;BME280;13291;40.472;-3.878;2023-04-25T12:37:23;52857.97;;;-139.96;27.50
7906;BME280;13291;40.472;-3.878;2023-04-25T12:39:50;52891.97;;;-139.96;27.49
7906;BME280;13291;40.472;-3.878;2023-04-25T12:42:18;52919.97;;;-139.96;26.92
7906;BME280;13291;40.472;-3.878;2023-04-25T12:44:45;52895.97;;;-139.96;26.45